createdAt,value
2017-06-08T00:00:16.816Z,53.50
2017-06-08T00:02:45.107Z,53.60
2017-06-08T00:05:13.381Z,53.80
2017-06-08T00:07:41.666Z,53.80
2017-06-08T00:10:09.933Z,53.80
2017-06-08T00:12:38.212Z,53.60
2017-06-08T00:15:06.486Z,53.70
2017-06-08T00:17:34.763Z,53.40
2017-06-08T00:20:03.052Z,53.50
2017-06-08T00:22:31.328Z,53.30
2017-06-08T00:24:59.611Z,53.50
2017-06-08T00:27:27.908Z,54.00
2017-06-08T00:29:56.191Z,54.10
2017-06-08T00:32:24.466Z,54.30
2017-06-08T00:34:52.744Z,54.70
2017-06-08T00:37:21.016Z,54.80
2017-06-08T00:39:49.300Z,54.20
2017-06-08T00:42:17.568Z,54.40
2017-06-08T00:44:45.839Z,54.80
2017-06-08T00:47:14.132Z,55.60
2017-06-08T00:49:42.395Z,55.30
2017-06-08T00:52:10.671Z,55.50
2017-06-08T00:54:38.943Z,55.50
2017-06-08T00:57:07.227Z,55.50
2017-06-08T00:59:35.495Z,55.50
2017-06-08T01:02:03.785Z,55.40
2017-06-08T01:04:32.048Z,56.00
2017-06-08T01:07:01.102Z,56.00
2017-06-08T01:09:29.370Z,56.00
2017-06-08T01:11:57.657Z,56.20
2017-06-08T01:14:25.913Z,56.10
2017-06-08T01:16:54.207Z,56.30
2017-06-08T01:19:22.479Z,56.50
2017-06-08T01:21:50.762Z,56.90
2017-06-08T01:24:19.026Z,57.10
2017-06-08T01:26:47.310Z,57.20
2017-06-08T01:29:15.602Z,56.90
2017-06-08T01:31:43.874Z,56.80
2017-06-08T01:34:12.164Z,57.00
2017-06-08T01:36:40.429Z,56.70
2017-06-08T01:39:08.715Z,56.60
2017-06-08T01:41:36.992Z,56.30
2017-06-08T01:44:05.279Z,56.30
2017-06-08T01:46:33.551Z,56.30
2017-06-08T01:49:01.847Z,56.90
2017-06-08T01:51:30.884Z,56.50
2017-06-08T01:53:59.172Z,56.50
2017-06-08T01:56:27.436Z,56.60
2017-06-08T01:58:55.714Z,56.50
2017-06-08T02:01:23.991Z,56.50
2017-06-08T02:03:52.275Z,56.40
2017-06-08T02:06:20.544Z,56.40
2017-06-08T02:08:48.812Z,56.30
2017-06-08T02:11:17.093Z,56.20
2017-06-08T02:13:45.363Z,56.30
2017-06-08T02:16:13.653Z,56.40
2017-06-08T02:18:41.919Z,56.20
2017-06-08T02:21:10.203Z,55.70
2017-06-08T02:23:38.473Z,55.40
2017-06-08T02:26:06.755Z,55.80
2017-06-08T02:28:35.019Z,56.20
2017-06-08T02:31:03.302Z,55.90
2017-06-08T02:33:31.566Z,56.10
2017-06-08T02:35:59.854Z,56.30
2017-06-08T02:38:28.127Z,57.00
2017-06-08T02:40:56.428Z,57.00
2017-06-08T02:43:24.690Z,57.30
2017-06-08T02:45:52.954Z,57.40
2017-06-08T02:48:21.230Z,57.50
2017-06-08T02:50:49.502Z,57.00
2017-06-08T02:53:17.783Z,56.90
2017-06-08T02:55:46.058Z,57.00
2017-06-08T02:58:14.347Z,57.10
2017-06-08T03:00:42.615Z,57.30
2017-06-08T03:03:10.899Z,57.50
2017-06-08T03:05:39.171Z,57.50
2017-06-08T03:08:07.456Z,57.40
2017-06-08T03:10:35.745Z,57.50
2017-06-08T03:13:04.049Z,57.60
2017-06-08T03:15:32.605Z,57.80
2017-06-08T03:18:00.872Z,57.60
2017-06-08T03:20:29.172Z,57.70
2017-06-08T03:22:57.444Z,57.70
2017-06-08T03:25:25.735Z,57.80
2017-06-08T03:27:54.015Z,58.20
2017-06-08T03:30:22.327Z,58.10
2017-06-08T03:32:51.375Z,57.60
2017-06-08T03:35:19.660Z,57.50
2017-06-08T03:37:47.928Z,57.20
2017-06-08T03:40:16.220Z,57.30
2017-06-08T03:42:44.482Z,56.90
2017-06-08T03:45:12.794Z,57.00
2017-06-08T03:47:41.069Z,56.90
2017-06-08T03:50:09.363Z,57.10
2017-06-08T03:52:38.474Z,57.00
2017-06-08T03:55:07.555Z,56.90
2017-06-08T03:57:35.833Z,56.90
2017-06-08T04:00:04.888Z,57.30
2017-06-08T04:02:33.170Z,57.30
2017-06-08T04:05:01.459Z,57.30
2017-06-08T04:07:29.728Z,57.90
2017-06-08T04:09:57.999Z,57.50
2017-06-08T04:12:26.283Z,58.00
2017-06-08T04:14:54.554Z,58.00
2017-06-08T04:17:22.836Z,58.00
2017-06-08T04:19:51.108Z,58.00
2017-06-08T04:22:19.412Z,58.00
2017-06-08T04:24:48.466Z,58.20
2017-06-08T04:27:16.745Z,58.20
2017-06-08T04:29:45.024Z,58.00
2017-06-08T04:32:13.312Z,57.90
2017-06-08T04:34:41.593Z,57.70
2017-06-08T04:37:09.893Z,57.70
2017-06-08T04:39:38.192Z,57.70
2017-06-08T04:42:06.492Z,57.30
2017-06-08T04:44:34.806Z,57.70
2017-06-08T04:47:03.077Z,57.40
2017-06-08T04:49:31.360Z,57.40
2017-06-08T04:51:59.733Z,57.00
2017-06-08T04:54:28.024Z,55.90
2017-06-08T04:56:56.304Z,55.00
2017-06-08T04:59:24.615Z,53.80
2017-06-08T05:01:52.882Z,52.60
2017-06-08T05:04:21.950Z,50.00
2017-06-08T05:06:50.256Z,50.10
2017-06-08T05:09:18.573Z,49.40
2017-06-08T05:11:46.858Z,48.30
2017-06-08T05:14:15.178Z,48.60
2017-06-08T05:16:43.468Z,47.90
2017-06-08T05:19:11.876Z,45.80
2017-06-08T05:21:40.210Z,45.70
2017-06-08T05:24:09.270Z,45.50
2017-06-08T05:26:37.566Z,45.50
2017-06-08T05:29:05.839Z,44.80
2017-06-08T05:31:34.136Z,46.60
2017-06-08T05:34:02.425Z,45.10
2017-06-08T05:36:31.489Z,45.70
2017-06-08T05:38:59.762Z,45.60
2017-06-08T05:41:28.074Z,44.60
2017-06-08T05:43:56.352Z,44.30
2017-06-08T05:46:24.627Z,43.30
2017-06-08T05:48:53.744Z,44.10
2017-06-08T05:51:22.072Z,44.10
2017-06-08T05:53:50.372Z,43.80
2017-06-08T05:56:18.652Z,43.20
2017-06-08T05:58:47.715Z,43.70
2017-06-08T06:01:16.003Z,43.70
2017-06-08T06:03:44.304Z,43.00
2017-06-08T06:06:12.585Z,42.90
2017-06-08T06:08:40.901Z,42.50
2017-06-08T06:11:09.184Z,42.50
2017-06-08T06:13:37.482Z,43.50
2017-06-08T06:16:05.749Z,44.70
2017-06-08T06:18:34.061Z,42.90
2017-06-08T06:21:03.132Z,42.60
2017-06-08T06:23:31.406Z,42.60
2017-06-08T06:25:59.713Z,43.80
2017-06-08T06:28:27.993Z,43.80
2017-06-08T06:30:56.287Z,45.10
2017-06-08T06:33:24.584Z,44.40
2017-06-08T06:35:52.877Z,43.70
2017-06-08T06:38:21.169Z,43.40
2017-06-08T06:40:49.456Z,42.30
2017-06-08T06:43:17.749Z,42.50
2017-06-08T06:45:46.823Z,43.90
2017-06-08T06:48:15.091Z,43.80
2017-06-08T06:50:43.397Z,44.00
2017-06-08T06:53:12.444Z,44.00
2017-06-08T06:55:40.749Z,43.60
2017-06-08T06:58:09.033Z,44.40
2017-06-08T07:00:37.371Z,44.30
2017-06-08T07:03:05.713Z,44.30
2017-06-08T07:05:34.749Z,44.90
2017-06-08T07:08:03.041Z,44.70
2017-06-08T07:10:31.327Z,45.40
2017-06-08T07:12:59.614Z,44.20
2017-06-08T07:15:27.912Z,44.50
2017-06-08T07:17:56.288Z,44.10
2017-06-08T07:20:25.332Z,44.40
2017-06-08T07:22:53.630Z,44.40
2017-06-08T07:25:21.937Z,44.70
2017-06-08T07:27:50.268Z,45.50
2017-06-08T07:30:18.547Z,44.90
2017-06-08T07:32:46.841Z,44.30
2017-06-08T07:35:15.249Z,44.40
2017-06-08T07:37:43.559Z,44.10
2017-06-08T07:40:11.840Z,44.70
2017-06-08T07:42:40.241Z,43.70
2017-06-08T07:45:08.514Z,43.60
2017-06-08T07:47:36.860Z,43.60
2017-06-08T07:50:05.184Z,43.30
2017-06-08T07:52:33.568Z,43.40
2017-06-08T07:55:01.865Z,42.50
2017-06-08T07:57:30.175Z,42.80
2017-06-08T07:59:58.477Z,42.50
2017-06-08T08:02:38.623Z,41.50
2017-06-08T08:05:06.920Z,41.80
2017-06-08T08:07:35.283Z,42.90
2017-06-08T08:10:03.677Z,42.00
2017-06-08T08:12:31.986Z,41.80
2017-06-08T08:15:00.810Z,40.50
2017-06-08T08:17:29.262Z,39.80
2017-06-08T08:19:57.548Z,40.40
2017-06-08T08:22:25.828Z,40.10
2017-06-08T08:24:54.153Z,41.00
2017-06-08T08:27:22.432Z,41.40
2017-06-08T08:29:50.724Z,42.00
2017-06-08T08:32:19.113Z,41.10
2017-06-08T08:34:47.457Z,40.10
2017-06-08T08:37:16.370Z,38.30
2017-06-08T08:39:44.964Z,37.80
2017-06-08T08:42:13.382Z,38.80
2017-06-08T08:44:41.942Z,37.80
2017-06-08T08:47:11.081Z,37.90
2017-06-08T08:49:40.897Z,37.60
2017-06-08T08:52:11.722Z,36.70
2017-06-08T08:54:39.999Z,37.90
2017-06-08T08:57:08.360Z,36.50
2017-06-08T08:59:36.639Z,35.60
2017-06-08T09:02:05.693Z,34.60
2017-06-08T09:04:33.972Z,34.60
2017-06-08T09:07:02.273Z,36.10
2017-06-08T09:09:30.549Z,35.40
2017-06-08T09:11:58.852Z,35.30
2017-06-08T09:14:27.903Z,35.00
2017-06-08T09:16:56.180Z,34.90
2017-06-08T09:19:24.477Z,34.90
2017-06-08T09:21:52.756Z,34.10
2017-06-08T09:24:21.053Z,34.70
2017-06-08T09:26:50.090Z,33.70
2017-06-08T09:29:18.385Z,33.60
2017-06-08T09:31:46.662Z,33.40
2017-06-08T09:34:14.951Z,31.70
2017-06-08T09:36:43.232Z,33.70
2017-06-08T09:39:11.519Z,33.60
2017-06-08T09:41:39.800Z,33.80
2017-06-08T09:44:08.861Z,33.50
2017-06-08T09:46:37.136Z,33.50
2017-06-08T09:49:05.425Z,33.10
2017-06-08T09:51:34.464Z,33.30
2017-06-08T09:54:02.774Z,33.30
2017-06-08T09:56:31.042Z,34.20
2017-06-08T09:58:59.310Z,32.70
2017-06-08T10:01:27.611Z,31.80
2017-06-08T10:03:55.991Z,32.90
2017-06-08T10:06:24.273Z,31.40
2017-06-08T10:08:52.544Z,32.60
2017-06-08T10:11:20.854Z,30.80
2017-06-08T10:13:49.891Z,30.90
2017-06-08T10:16:18.213Z,30.80
2017-06-08T10:18:47.256Z,31.80
2017-06-08T10:21:15.555Z,31.90
2017-06-08T10:23:43.844Z,33.30
2017-06-08T10:26:12.144Z,32.90
2017-06-08T10:28:40.417Z,32.50
2017-06-08T10:31:08.720Z,29.90
2017-06-08T10:33:37.004Z,30.40
2017-06-08T10:36:05.318Z,29.50
2017-06-08T10:38:33.600Z,30.00
2017-06-08T10:41:01.878Z,31.40
2017-06-08T10:43:30.177Z,31.40
2017-06-08T10:45:58.456Z,28.90
2017-06-08T10:48:27.535Z,30.20
2017-06-08T10:50:55.812Z,30.20
2017-06-08T10:53:24.100Z,28.10
2017-06-08T10:55:52.382Z,27.90
2017-06-08T10:58:20.709Z,28.60
2017-06-08T11:00:48.986Z,29.20
2017-06-08T11:03:17.280Z,29.50
2017-06-08T11:05:45.562Z,29.50
2017-06-08T11:08:13.861Z,29.20
2017-06-08T11:10:42.137Z,29.10
2017-06-08T11:13:10.456Z,29.00
2017-06-08T11:15:38.736Z,29.50
2017-06-08T11:18:07.029Z,29.60
2017-06-08T11:20:35.349Z,28.90
2017-06-08T11:23:03.641Z,31.10
2017-06-08T11:25:31.945Z,30.60
2017-06-08T11:28:00.224Z,29.70
2017-06-08T11:30:28.536Z,30.70
2017-06-08T11:32:56.812Z,30.40
2017-06-08T11:35:25.100Z,30.00
2017-06-08T11:37:53.385Z,30.70
2017-06-08T11:40:21.687Z,31.00
2017-06-08T11:42:50.725Z,30.90
2017-06-08T11:45:19.012Z,30.80
2017-06-08T11:47:47.289Z,29.30
2017-06-08T11:50:15.581Z,29.40
2017-06-08T11:52:43.904Z,30.10
2017-06-08T11:55:12.209Z,30.30
2017-06-08T11:57:40.480Z,29.50
2017-06-08T12:00:08.801Z,30.50
2017-06-08T12:02:37.073Z,30.60
2017-06-08T12:05:05.350Z,30.90
2017-06-08T12:07:33.644Z,31.80
2017-06-08T12:10:02.700Z,32.90
2017-06-08T12:12:30.993Z,32.80
2017-06-08T12:14:59.284Z,31.50
2017-06-08T12:17:27.579Z,31.40
2017-06-08T12:19:56.644Z,31.30
2017-06-08T12:22:24.937Z,31.10
2017-06-08T12:24:53.988Z,30.90
2017-06-08T12:27:22.284Z,30.80
2017-06-08T12:29:50.577Z,30.90
2017-06-08T12:32:18.873Z,32.40
2017-06-08T12:34:47.154Z,31.50
2017-06-08T12:37:16.245Z,32.60
2017-06-08T12:39:44.527Z,32.60
2017-06-08T12:42:13.566Z,32.20
2017-06-08T12:44:41.861Z,32.20
2017-06-08T12:47:10.152Z,31.50
2017-06-08T12:49:38.441Z,32.20
2017-06-08T12:52:06.720Z,32.60
2017-06-08T12:54:35.089Z,31.60
2017-06-08T12:57:03.368Z,30.80
2017-06-08T12:59:31.673Z,31.20
2017-06-08T13:01:59.947Z,31.30
2017-06-08T13:04:28.238Z,30.80
2017-06-08T13:06:56.520Z,31.80
2017-06-08T13:09:24.825Z,32.90
2017-06-08T13:11:53.103Z,33.40
2017-06-08T13:14:21.416Z,33.20
2017-06-08T13:16:50.483Z,32.50
2017-06-08T13:19:18.785Z,32.70
2017-06-08T13:21:47.836Z,32.20
2017-06-08T13:24:16.188Z,31.70
2017-06-08T13:26:44.465Z,33.10
2017-06-08T13:29:12.820Z,32.90
2017-06-08T13:31:41.059Z,33.10
2017-06-08T13:34:09.337Z,33.10
2017-06-08T13:36:37.628Z,32.70
2017-06-08T13:39:05.904Z,31.90
2017-06-08T13:41:34.197Z,31.50
2017-06-08T13:44:02.480Z,31.50
2017-06-08T13:46:30.774Z,31.80
2017-06-08T13:48:59.053Z,31.20
2017-06-08T13:51:27.348Z,31.50
2017-06-08T13:53:55.631Z,31.50
2017-06-08T13:56:23.923Z,31.90
2017-06-08T13:58:52.215Z,31.40
2017-06-08T14:01:20.512Z,31.90
2017-06-08T14:03:48.789Z,31.50
2017-06-08T14:06:17.078Z,31.90
2017-06-08T14:08:45.351Z,31.40
2017-06-08T14:11:14.240Z,31.20
2017-06-08T14:13:42.543Z,30.60
2017-06-08T14:16:10.839Z,30.80
2017-06-08T14:18:39.945Z,30.90
2017-06-08T14:21:09.376Z,30.80
2017-06-08T14:23:37.676Z,30.60
2017-06-08T14:26:05.962Z,30.90
2017-06-08T14:28:34.267Z,31.20
2017-06-08T14:31:02.532Z,31.20
2017-06-08T14:33:30.831Z,31.40
2017-06-08T14:35:59.119Z,31.20
2017-06-08T14:38:27.443Z,30.00
2017-06-08T14:40:55.735Z,30.00
2017-06-08T14:43:24.061Z,30.00
2017-06-08T14:45:52.347Z,30.00
2017-06-08T14:48:20.889Z,30.60
2017-06-08T14:50:49.176Z,30.00
2017-06-08T14:53:17.452Z,30.90
2017-06-08T14:55:49.000Z,30.90
2017-06-08T14:58:18.873Z,30.30
2017-06-08T15:00:47.173Z,30.20
2017-06-08T15:03:15.447Z,30.50
2017-06-08T15:05:43.740Z,30.20
2017-06-08T15:08:12.026Z,29.60
2017-06-08T15:10:40.336Z,30.00
2017-06-08T15:13:09.384Z,29.90
2017-06-08T15:15:37.676Z,29.90
2017-06-08T15:18:06.004Z,30.30
2017-06-08T15:20:34.334Z,30.60
2017-06-08T15:23:02.609Z,30.70
2017-06-08T15:25:31.171Z,31.10
2017-06-08T15:27:59.508Z,30.20
2017-06-08T15:30:27.816Z,30.00
2017-06-08T15:32:56.109Z,29.40
2017-06-08T15:35:24.433Z,30.20
2017-06-08T15:37:52.941Z,29.50
2017-06-08T15:40:21.481Z,30.00
2017-06-08T15:42:49.784Z,30.20
2017-06-08T15:45:18.076Z,30.50
2017-06-08T15:47:46.474Z,30.20
2017-06-08T15:50:14.778Z,30.50
2017-06-08T15:52:43.183Z,29.90
2017-06-08T15:55:11.718Z,30.40
2017-06-08T15:57:40.133Z,30.50
2017-06-08T16:00:08.421Z,29.60
2017-06-08T16:02:36.770Z,29.90
2017-06-08T16:05:05.046Z,30.80
2017-06-08T16:07:33.371Z,29.80
2017-06-08T16:10:02.427Z,30.20
2017-06-08T16:12:30.708Z,30.20
2017-06-08T16:14:59.000Z,30.90
2017-06-08T16:17:27.335Z,30.60
2017-06-08T16:19:55.834Z,30.70
2017-06-08T16:22:24.951Z,30.40
2017-06-08T16:24:53.225Z,30.30
2017-06-08T16:27:21.499Z,29.70
2017-06-08T16:29:49.803Z,29.90
2017-06-08T16:32:18.106Z,30.30
2017-06-08T16:34:56.669Z,30.30
2017-06-08T16:37:35.011Z,29.90
2017-06-08T16:40:16.160Z,29.30
2017-06-08T16:42:55.986Z,29.50
2017-06-08T16:45:34.671Z,29.50
2017-06-08T16:48:06.996Z,30.20
2017-06-08T16:50:46.868Z,31.00
2017-06-08T16:53:28.906Z,30.80
2017-06-08T16:56:18.391Z,31.10
2017-06-08T16:58:56.741Z,30.30
2017-06-08T17:01:38.185Z,30.50
2017-06-08T17:04:17.234Z,30.00
2017-06-08T17:06:47.365Z,29.00
2017-06-08T17:09:21.505Z,29.20
2017-06-08T17:11:58.326Z,29.30
2017-06-08T17:14:34.937Z,29.70
2017-06-08T17:17:11.771Z,30.10
2017-06-08T17:19:52.727Z,30.50
2017-06-08T17:22:31.827Z,30.40
2017-06-08T17:25:16.592Z,29.90
2017-06-08T17:30:36.407Z,30.20
2017-06-08T17:33:20.170Z,30.10
2017-06-08T17:35:56.333Z,29.80
2017-06-08T17:38:32.898Z,30.10
2017-06-08T17:41:08.183Z,30.30
2017-06-08T17:43:59.291Z,30.40
2017-06-08T17:49:17.988Z,30.80
2017-06-08T17:51:55.373Z,30.50
2017-06-08T17:54:34.241Z,30.30
2017-06-08T17:57:18.001Z,30.10
2017-06-08T17:59:50.872Z,30.30
2017-06-08T18:02:25.428Z,31.40
2017-06-08T18:05:03.156Z,31.10
2017-06-08T18:07:40.136Z,31.30
2017-06-08T18:10:15.435Z,31.60
2017-06-08T18:12:56.892Z,31.90
2017-06-08T18:16:07.804Z,32.30
2017-06-08T18:18:42.884Z,32.60
2017-06-08T18:21:26.994Z,32.70
2017-06-08T18:24:04.858Z,33.50
2017-06-08T18:26:44.387Z,33.40
2017-06-08T18:29:26.020Z,33.30
2017-06-08T18:32:04.334Z,33.00
2017-06-08T18:34:52.815Z,33.30
2017-06-08T18:37:35.627Z,33.60
2017-06-08T18:40:14.931Z,34.20
2017-06-08T18:42:54.413Z,33.80
2017-06-08T18:45:23.776Z,34.20
2017-06-08T18:47:52.080Z,34.00
2017-06-08T18:50:20.367Z,34.30
2017-06-08T18:52:48.693Z,34.20
2017-06-08T18:55:16.966Z,34.40
2017-06-08T18:57:45.286Z,34.50
2017-06-08T19:00:13.652Z,34.80
2017-06-08T19:02:42.756Z,35.20
2017-06-08T19:05:11.044Z,35.70
2017-06-08T19:07:39.439Z,36.20
2017-06-08T19:10:07.708Z,36.40
2017-06-08T19:12:36.006Z,36.90
2017-06-08T19:15:04.307Z,37.20
2017-06-08T19:17:32.584Z,36.90
2017-06-08T19:20:00.890Z,37.00
2017-06-08T19:22:29.259Z,37.00
2017-06-08T19:24:57.596Z,36.90
2017-06-08T19:27:25.856Z,37.80
2017-06-08T19:29:54.167Z,38.30
2017-06-08T19:32:22.460Z,39.00
2017-06-08T19:34:50.747Z,38.70
2017-06-08T19:37:19.827Z,39.70
2017-06-08T19:39:48.124Z,39.60
2017-06-08T19:42:16.484Z,39.00
2017-06-08T19:44:44.787Z,40.40
2017-06-08T19:47:13.124Z,40.20
2017-06-08T19:49:41.453Z,40.50
2017-06-08T19:52:09.753Z,40.40
2017-06-08T19:54:38.053Z,40.00
2017-06-08T19:57:06.319Z,40.60
2017-06-08T19:59:34.613Z,40.90
2017-06-08T20:02:02.901Z,40.70
2017-06-08T20:04:31.200Z,41.50
2017-06-08T20:06:59.476Z,41.50
2017-06-08T20:09:27.768Z,42.30
2017-06-08T20:11:56.061Z,43.40
2017-06-08T20:14:24.344Z,44.60
2017-06-08T20:16:52.644Z,44.40
2017-06-08T20:19:20.934Z,44.60
2017-06-08T20:21:50.021Z,44.90
2017-06-08T20:24:18.359Z,44.30
2017-06-08T20:26:46.737Z,44.20
2017-06-08T20:29:15.036Z,44.70
2017-06-08T20:31:43.332Z,45.10
2017-06-08T20:34:11.651Z,45.40
2017-06-08T20:36:39.951Z,45.00
2017-06-08T20:39:08.233Z,45.80
2017-06-08T20:41:36.520Z,45.90
2017-06-08T20:44:04.796Z,46.50
2017-06-08T20:46:33.104Z,46.70
2017-06-08T20:49:01.389Z,46.90
2017-06-08T20:51:30.436Z,46.80
2017-06-08T20:53:58.792Z,46.80
2017-06-08T20:56:27.077Z,47.10
2017-06-08T20:58:55.880Z,47.50
2017-06-08T21:01:24.182Z,47.60
2017-06-08T21:03:52.476Z,47.20
2017-06-08T21:06:20.761Z,46.70
2017-06-08T21:08:49.056Z,47.40
2017-06-08T21:11:17.330Z,48.20
2017-06-08T21:13:45.626Z,48.20
2017-06-08T21:16:13.913Z,48.00
2017-06-08T21:18:42.212Z,48.50
2017-06-08T21:21:10.513Z,48.70
2017-06-08T21:23:38.809Z,48.30
2017-06-08T21:26:07.113Z,48.10
2017-06-08T21:28:35.583Z,48.50
2017-06-08T21:31:03.856Z,48.30
2017-06-08T21:33:32.160Z,48.70
2017-06-08T21:36:00.437Z,48.70
2017-06-08T21:38:28.708Z,48.50
2017-06-08T21:40:57.016Z,49.00
2017-06-08T21:43:25.297Z,48.80
2017-06-08T21:45:53.611Z,49.40
2017-06-08T21:48:21.901Z,49.40
2017-06-08T21:50:50.441Z,49.00
2017-06-08T21:53:18.782Z,49.20
2017-06-08T21:55:47.075Z,49.30
2017-06-08T21:58:15.351Z,49.10
2017-06-08T22:00:43.664Z,49.50
2017-06-08T22:03:11.978Z,49.50
2017-06-08T22:05:40.269Z,49.20
2017-06-08T22:08:08.565Z,49.40
2017-06-08T22:10:36.853Z,49.40
2017-06-08T22:13:05.132Z,49.70
2017-06-08T22:15:33.480Z,49.60
2017-06-08T22:18:01.756Z,49.50
2017-06-08T22:20:30.052Z,50.10
2017-06-08T22:22:58.356Z,50.40
2017-06-08T22:25:26.717Z,50.60
2017-06-08T22:27:55.002Z,50.40
2017-06-08T22:30:23.305Z,50.80
2017-06-08T22:32:52.389Z,50.70
2017-06-08T22:35:20.670Z,50.70
2017-06-08T22:37:48.972Z,50.90
2017-06-08T22:40:17.352Z,50.40
2017-06-08T22:42:45.754Z,50.80
2017-06-08T22:45:14.036Z,51.00
2017-06-08T22:47:42.327Z,50.80
2017-06-08T22:50:10.625Z,50.60
2017-06-08T22:52:38.953Z,50.80
2017-06-08T22:55:07.235Z,51.10
2017-06-08T22:57:35.580Z,51.20
2017-06-08T23:00:04.619Z,51.20
2017-06-08T23:02:32.907Z,51.10
2017-06-08T23:05:01.272Z,51.60
2017-06-08T23:07:29.550Z,51.80
2017-06-08T23:09:57.858Z,51.50
2017-06-08T23:12:26.147Z,51.40
2017-06-08T23:14:54.440Z,51.30
2017-06-08T23:17:22.725Z,51.20
2017-06-08T23:19:51.024Z,51.00
2017-06-08T23:22:19.305Z,51.60
2017-06-08T23:24:47.608Z,52.30
2017-06-08T23:27:15.899Z,52.70
2017-06-08T23:29:44.232Z,52.60
2017-06-08T23:32:12.553Z,52.60
2017-06-08T23:34:40.896Z,52.50
2017-06-08T23:37:09.193Z,51.90
2017-06-08T23:39:37.468Z,52.50
2017-06-08T23:42:05.784Z,53.10
2017-06-08T23:44:34.845Z,53.10
2017-06-08T23:47:03.152Z,53.00
2017-06-08T23:49:32.209Z,52.80
2017-06-08T23:52:00.540Z,52.90
2017-06-08T23:54:28.833Z,53.40
2017-06-08T23:56:57.148Z,53.50
2017-06-08T23:59:25.425Z,53.70
